Time;durP1;ratioP1;P1;durP2;ratioP2;P2;SDS_P1;SDS_P2;PMS_P1;PMS_P2;Temp;Humidity;BMP_temperature;BMP_pressure;BME280_temperature;BME280_humidity;BME280_pressure;Samples;Min_cycle;Max_cycle;Signal;HPM_P1;HPM_P2
2023/04/17 00:01:36;;;;;;;102.95;54.13;;;8.70;99.90;;;;;;5103608;28;20059;-70
2023/04/17 00:04:02;;;;;;;101.38;53.17;;;8.70;99.90;;;;;;5062357;28;20052;-70
2023/04/17 00:06:28;;;;;;;101.70;54.42;;;8.70;99.90;;;;;;5084876;28;20051;-70
2023/04/17 00:08:54;;;;;;;99.25;55.72;;;8.70;99.90;;;;;;5065915;28;20051;-70
2023/04/17 00:11:20;;;;;;;102.30;56.83;;;8.70;99.90;;;;;;5072714;28;20056;-70
2023/04/17 00:13:46;;;;;;;95.85;51.97;;;8.70;99.90;;;;;;5081626;28;20742;-70
2023/04/17 00:16:12;;;;;;;92.85;52.40;;;8.70;99.90;;;;;;5062638;28;20043;-70
2023/04/17 00:18:41;;;;;;;103.90;54.45;;;8.70;99.90;;;;;;5069415;28;20082;-71
2023/04/17 00:21:06;;;;;;;98.18;52.75;;;8.70;99.90;;;;;;5070130;28;20451;-70
2023/04/17 00:23:32;;;;;;;98.78;50.90;;;8.70;99.90;;;;;;5061558;28;20700;-70
2023/04/17 00:25:58;;;;;;;114.82;55.33;;;8.70;99.90;;;;;;5087481;28;20040;-70
2023/04/17 00:28:23;;;;;;;90.55;53.70;;;8.70;99.90;;;;;;5066698;28;20062;-70
2023/04/17 00:30:49;;;;;;;106.45;53.38;;;8.70;99.90;;;;;;5087957;28;20132;-70
2023/04/17 00:33:15;;;;;;;101.80;53.97;;;8.70;99.90;;;;;;5068962;28;20048;-70
2023/04/17 00:35:40;;;;;;;97.60;53.30;;;8.70;99.90;;;;;;5052351;28;20036;-71
2023/04/17 00:38:08;;;;;;;110.60;53.25;;;8.70;99.90;;;;;;5070165;28;20135;-70
2023/04/17 00:40:35;;;;;;;88.03;53.50;;;8.70;99.90;;;;;;5082757;28;20052;-70
2023/04/17 00:43:01;;;;;;;102.70;55.72;;;8.70;99.90;;;;;;5062570;28;20078;-71
2023/04/17 00:45:28;;;;;;;93.18;50.25;;;8.70;99.90;;;;;;5086749;28;20054;-70
2023/04/17 00:47:55;;;;;;;95.65;52.20;;;8.70;99.90;;;;;;5069661;28;20051;-70
2023/04/17 00:50:21;;;;;;;96.13;52.70;;;8.70;99.90;;;;;;5068587;28;20450;-70
2023/04/17 00:52:48;;;;;;;103.38;54.63;;;8.70;99.90;;;;;;5070444;28;20131;-70
2023/04/17 00:55:14;;;;;;;82.38;47.03;;;8.70;99.90;;;;;;5069228;28;20040;-70
2023/04/17 00:57:41;;;;;;;77.82;45.25;;;8.70;99.90;;;;;;5063649;28;20404;-70
2023/04/17 01:00:09;;;;;;;81.70;49.65;;;8.70;99.90;;;;;;5068858;28;20047;-69
2023/04/17 01:02:35;;;;;;;86.72;50.33;;;8.70;99.90;;;;;;5086889;28;20838;-70
2023/04/17 01:05:00;;;;;;;101.47;51.83;;;8.70;99.90;;;;;;5068213;28;20044;-70
2023/04/17 01:07:26;;;;;;;91.40;50.33;;;8.70;99.90;;;;;;5086955;28;20063;-70
2023/04/17 01:09:53;;;;;;;83.40;50.95;;;8.70;99.90;;;;;;5063482;28;20051;-70
2023/04/17 01:12:20;;;;;;;86.55;50.83;;;8.70;99.90;;;;;;5102459;28;20463;-70
2023/04/17 01:14:48;;;;;;;82.78;48.65;;;8.70;99.90;;;;;;5065157;28;20099;-70
2023/04/17 01:17:14;;;;;;;80.32;47.92;;;8.70;99.90;;;;;;5084509;28;20052;-70
2023/04/17 01:19:40;;;;;;;84.78;50.15;;;8.70;99.90;;;;;;5069511;28;20056;-70
2023/04/17 01:22:07;;;;;;;84.55;49.20;;;8.80;99.90;;;;;;5103089;28;20051;-70
2023/04/17 01:24:32;;;;;;;81.25;48.15;;;8.80;99.90;;;;;;5065811;28;20444;-69
2023/04/17 01:26:58;;;;;;;81.55;46.97;;;8.80;99.90;;;;;;5084207;28;20044;-70
2023/04/17 01:29:24;;;;;;;88.22;49.60;;;8.80;99.90;;;;;;5078426;28;20044;-70
2023/04/17 01:31:49;;;;;;;86.20;46.90;;;8.80;99.90;;;;;;5095965;28;20508;-69
2023/04/17 01:34:15;;;;;;;92.72;48.72;;;8.70;99.90;;;;;;5085878;28;20485;-70
2023/04/17 01:36:41;;;;;;;91.90;50.97;;;8.80;99.90;;;;;;5086256;28;20119;-70
2023/04/17 01:39:07;;;;;;;90.00;49.72;;;8.70;99.90;;;;;;5087753;28;20404;-70
2023/04/17 01:41:33;;;;;;;94.95;52.15;;;8.70;99.90;;;;;;5086063;28;20055;-70
2023/04/17 01:43:58;;;;;;;91.40;51.67;;;8.70;99.90;;;;;;5066781;28;20056;-70
2023/04/17 01:46:25;;;;;;;93.13;54.17;;;8.70;99.90;;;;;;5086768;28;20055;-69
2023/04/17 01:48:51;;;;;;;90.22;50.63;;;8.70;99.90;;;;;;5065632;28;20722;-70
2023/04/17 01:51:16;;;;;;;103.75;52.83;;;8.70;99.90;;;;;;5088094;28;20036;-70
2023/04/17 01:53:42;;;;;;;91.70;52.15;;;8.70;99.90;;;;;;5067575;28;20528;-70
2023/04/17 01:56:08;;;;;;;91.10;49.50;;;8.70;99.90;;;;;;5086895;28;20416;-70
2023/04/17 01:58:33;;;;;;;98.15;51.63;;;8.70;99.90;;;;;;5085243;28;20544;-70
2023/04/17 02:00:59;;;;;;;92.75;52.22;;;8.60;99.90;;;;;;5068813;28;20429;-70
2023/04/17 02:03:25;;;;;;;90.28;50.08;;;8.70;99.90;;;;;;5089354;28;20072;-70
2023/04/17 02:05:54;;;;;;;79.20;46.53;;;8.60;99.90;;;;;;5090252;28;20040;-70
2023/04/17 02:08:19;;;;;;;90.93;53.10;;;8.60;99.90;;;;;;5071655;28;20504;-70
2023/04/17 02:10:45;;;;;;;103.78;54.03;;;8.60;99.90;;;;;;5089187;28;20059;-70
2023/04/17 02:13:11;;;;;;;103.18;55.22;;;8.60;99.90;;;;;;5105519;28;20059;-70
2023/04/17 02:15:37;;;;;;;96.03;53.22;;;8.70;99.90;;;;;;5086363;28;20056;-70
2023/04/17 02:18:04;;;;;;;91.60;52.17;;;8.70;99.90;;;;;;5086971;28;20040;-70
2023/04/17 02:20:34;;;;;;;93.95;53.05;;;8.60;99.90;;;;;;5090399;28;20055;-70
2023/04/17 02:23:00;;;;;;;91.20;51.72;;;8.60;99.90;;;;;;5106967;28;20546;-70
2023/04/17 02:25:27;;;;;;;103.18;56.88;;;8.60;99.90;;;;;;5089877;28;20042;-70
2023/04/17 02:27:55;;;;;;;88.60;49.85;;;8.60;99.90;;;;;;5064935;28;20456;-70
2023/04/17 02:30:24;;;;;;;97.53;54.22;;;8.60;99.90;;;;;;5089688;28;20044;-70
2023/04/17 02:32:51;;;;;;;111.30;56.05;;;8.60;99.90;;;;;;5072995;28;20046;-70
2023/04/17 02:35:18;;;;;;;95.50;53.53;;;8.60;99.90;;;;;;5089892;28;20036;-70
2023/04/17 02:37:44;;;;;;;94.65;54.00;;;8.50;99.90;;;;;;5071861;28;20701;-70
2023/04/17 02:40:10;;;;;;;94.70;53.28;;;8.60;99.90;;;;;;5089015;28;20035;-70
2023/04/17 02:42:36;;;;;;;94.55;54.42;;;8.60;99.90;;;;;;5064253;28;20394;-70
2023/04/17 02:45:03;;;;;;;94.20;55.00;;;8.60;99.90;;;;;;5087867;28;20550;-70
2023/04/17 02:47:29;;;;;;;99.80;53.83;;;8.60;99.90;;;;;;5073050;28;20070;-70
2023/04/17 02:49:55;;;;;;;104.03;55.67;;;8.60;99.90;;;;;;5105378;28;20421;-70
2023/04/17 02:52:22;;;;;;;100.03;54.08;;;8.50;99.90;;;;;;5070699;28;20048;-70
2023/04/17 02:54:47;;;;;;;101.30;56.25;;;8.50;99.90;;;;;;5089003;28;20885;-70
2023/04/17 02:57:13;;;;;;;109.75;56.45;;;8.50;99.90;;;;;;5070730;28;20058;-71
2023/04/17 02:59:38;;;;;;;93.40;52.83;;;8.50;99.90;;;;;;5090897;28;20077;-70
2023/04/17 03:02:04;;;;;;;111.65;59.10;;;8.50;99.90;;;;;;5060656;28;20489;-70
2023/04/17 03:04:33;;;;;;;107.32;58.65;;;8.50;99.90;;;;;;5080395;28;20060;-70
2023/04/17 03:06:59;;;;;;;111.72;58.35;;;8.50;99.90;;;;;;5105713;28;20093;-70
2023/04/17 03:09:25;;;;;;;101.75;57.42;;;8.50;99.90;;;;;;5087822;28;20045;-70
2023/04/17 03:11:50;;;;;;;110.20;53.10;;;8.50;99.90;;;;;;5105563;28;20048;-70
2023/04/17 03:14:16;;;;;;;121.72;60.83;;;8.50;99.90;;;;;;5104304;28;20040;-70
2023/04/17 03:16:42;;;;;;;101.75;56.67;;;8.50;99.90;;;;;;5089628;28;20040;-70
2023/04/17 03:19:08;;;;;;;108.38;57.38;;;8.50;99.90;;;;;;5074258;28;20048;-70
2023/04/17 03:21:33;;;;;;;115.20;60.92;;;8.50;99.90;;;;;;5097177;28;20068;-70
2023/04/17 03:23:59;;;;;;;115.72;59.10;;;8.50;99.90;;;;;;5088510;28;20048;-70
2023/04/17 03:26:25;;;;;;;121.15;61.05;;;8.50;99.90;;;;;;5089065;28;20044;-70
2023/04/17 03:28:50;;;;;;;114.25;59.95;;;8.50;99.90;;;;;;5061582;28;20051;-70
2023/04/17 03:31:16;;;;;;;105.25;57.45;;;8.50;99.90;;;;;;5068035;28;20087;-70
2023/04/17 03:33:42;;;;;;;96.90;53.03;;;8.50;99.90;;;;;;5084798;28;20567;-70
2023/04/17 03:36:07;;;;;;;109.22;55.85;;;8.50;99.90;;;;;;5059088;28;20052;-70
2023/04/17 03:38:34;;;;;;;102.72;54.40;;;8.50;99.90;;;;;;5081290;28;20040;-70
2023/04/17 03:41:00;;;;;;;103.78;53.88;;;8.50;99.90;;;;;;5086220;28;20048;-70
2023/04/17 03:43:26;;;;;;;102.40;54.83;;;8.40;99.90;;;;;;5069214;28;20113;-70
2023/04/17 03:45:52;;;;;;;106.85;56.10;;;8.40;99.90;;;;;;5086305;28;20040;-70
2023/04/17 03:48:17;;;;;;;110.35;55.80;;;8.40;99.90;;;;;;5088824;28;20036;-70
2023/04/17 03:50:43;;;;;;;102.95;55.10;;;8.40;99.90;;;;;;5070432;28;20044;-70
2023/04/17 03:53:09;;;;;;;104.03;53.58;;;8.40;99.90;;;;;;5088730;28;20044;-70
2023/04/17 03:55:35;;;;;;;101.95;54.90;;;8.40;99.90;;;;;;5091742;28;20043;-70
2023/04/17 03:58:00;;;;;;;113.82;57.75;;;8.40;99.90;;;;;;5087007;28;20075;-70
2023/04/17 04:00:27;;;;;;;117.45;57.17;;;8.40;99.90;;;;;;5087744;28;20531;-70
2023/04/17 04:02:53;;;;;;;107.40;56.47;;;8.40;99.90;;;;;;5088528;28;20457;-70
2023/04/17 04:05:18;;;;;;;108.28;54.03;;;8.40;99.90;;;;;;5088122;28;20032;-70
2023/04/17 04:07:44;;;;;;;112.05;57.58;;;8.40;99.90;;;;;;5069987;28;20047;-70
2023/04/17 04:10:10;;;;;;;118.90;59.22;;;8.40;99.90;;;;;;5087549;28;20043;-70
2023/04/17 04:12:36;;;;;;;103.05;54.85;;;8.40;99.90;;;;;;5068293;28;20040;-69
2023/04/17 04:15:02;;;;;;;128.23;58.00;;;8.40;99.90;;;;;;5086339;28;20131;-70
2023/04/17 04:17:28;;;;;;;110.03;54.22;;;8.40;99.90;;;;;;5066838;28;20123;-70
2023/04/17 04:19:54;;;;;;;131.73;60.30;;;8.30;99.90;;;;;;5088641;28;20087;-70
2023/04/17 04:22:20;;;;;;;109.07;55.72;;;8.40;99.90;;;;;;5101198;28;20225;-70
2023/04/17 04:24:46;;;;;;;108.85;51.42;;;8.40;99.90;;;;;;5103212;28;20051;-70
2023/04/17 04:27:12;;;;;;;116.38;57.25;;;8.40;99.90;;;;;;5087773;28;20417;-70
2023/04/17 04:29:38;;;;;;;139.20;62.17;;;8.40;99.90;;;;;;5086849;28;20071;-70
2023/04/17 04:32:04;;;;;;;100.60;54.35;;;8.40;99.90;;;;;;5079668;28;20055;-70
2023/04/17 04:34:29;;;;;;;100.53;54.83;;;8.30;99.90;;;;;;5083472;28;20149;-71
2023/04/17 04:36:58;;;;;;;108.97;54.92;;;8.30;99.90;;;;;;5081149;28;20632;-70
2023/04/17 04:39:24;;;;;;;;;;;8.30;99.90;;;;;;5088164;28;20126;-70
2023/04/17 04:41:50;;;;;;;104.53;55.38;;;8.30;99.90;;;;;;5082180;28;20359;-70
2023/04/17 04:44:19;;;;;;;101.88;53.13;;;8.30;99.90;;;;;;5069776;28;20067;-70
2023/04/17 04:46:45;;;;;;;102.60;51.88;;;8.30;99.90;;;;;;5086700;28;20048;-70
2023/04/17 04:49:11;;;;;;;106.43;53.45;;;8.30;99.90;;;;;;5068337;28;20048;-70
2023/04/17 04:51:37;;;;;;;88.88;49.13;;;8.30;99.90;;;;;;5067816;28;20126;-70
2023/04/17 04:54:04;;;;;;;93.30;49.05;;;8.30;99.90;;;;;;5095719;28;20385;-70
2023/04/17 04:56:30;;;;;;;99.82;52.85;;;8.30;99.90;;;;;;5086891;28;20044;-70
2023/04/17 04:58:56;;;;;;;81.50;46.10;;;8.20;99.90;;;;;;5067927;28;20044;-71
2023/04/17 05:01:22;;;;;;;84.47;51.08;;;8.30;99.90;;;;;;5069401;28;20061;-70
2023/04/17 05:03:48;;;;;;;108.03;52.50;;;8.20;99.90;;;;;;5086549;28;20054;-70
2023/04/17 05:06:14;;;;;;;87.45;48.50;;;8.20;99.90;;;;;;5051094;28;20043;-70
2023/04/17 05:08:40;;;;;;;92.40;50.22;;;8.20;99.90;;;;;;5079996;28;20048;-70
2023/04/17 05:11:06;;;;;;;76.78;43.42;;;8.20;99.90;;;;;;5068683;28;20051;-70
2023/04/17 05:13:32;;;;;;;81.70;45.40;;;8.20;99.90;;;;;;5069191;28;20508;-70
2023/04/17 05:15:57;;;;;;;77.15;46.80;;;8.20;99.90;;;;;;5083420;28;20114;-70
2023/04/17 05:18:23;;;;;;;83.15;47.13;;;8.10;99.90;;;;;;5068811;28;20634;-70
2023/04/17 05:20:50;;;;;;;76.80;45.20;;;8.20;99.90;;;;;;5068208;28;20735;-70
2023/04/17 05:23:16;;;;;;;72.50;43.28;;;8.10;99.90;;;;;;5068308;28;20040;-70
2023/04/17 05:25:42;;;;;;;73.13;45.30;;;8.10;99.90;;;;;;5100345;28;20076;-70
2023/04/17 05:28:07;;;;;;;77.93;47.38;;;8.10;99.90;;;;;;5066337;28;20083;-70
2023/04/17 05:30:33;;;;;;;90.60;48.17;;;8.10;99.90;;;;;;5087283;28;20047;-70
2023/04/17 05:32:59;;;;;;;87.07;49.20;;;8.10;99.90;;;;;;5064699;28;20040;-70
2023/04/17 05:35:26;;;;;;;95.75;50.38;;;8.10;99.90;;;;;;5086242;28;20123;-70
2023/04/17 05:37:55;;;;;;;88.07;48.85;;;8.00;99.90;;;;;;5087579;28;20040;-70
2023/04/17 05:40:21;;;;;;;89.78;49.08;;;8.10;99.90;;;;;;5087516;28;20497;-70
2023/04/17 05:42:46;;;;;;;80.32;47.65;;;8.10;99.90;;;;;;5088029;28;20500;-70
2023/04/17 05:45:16;;;;;;;82.70;45.53;;;8.20;99.90;;;;;;5066462;28;20093;-70
2023/04/17 05:47:42;;;;;;;80.05;45.45;;;8.10;99.90;;;;;;5089281;28;20117;-70
2023/04/17 05:50:08;;;;;;;91.97;49.00;;;8.20;99.90;;;;;;5088936;28;20044;-70
2023/04/17 05:52:35;;;;;;;87.40;50.90;;;8.20;99.90;;;;;;5066060;28;20051;-69
2023/04/17 05:55:00;;;;;;;84.80;47.42;;;8.20;99.90;;;;;;5067673;28;20045;-70
2023/04/17 05:57:26;;;;;;;81.35;47.33;;;8.20;99.90;;;;;;5086786;28;20093;-70
2023/04/17 05:59:51;;;;;;;81.47;47.92;;;8.20;99.90;;;;;;5068353;28;20044;-71
2023/04/17 06:02:17;;;;;;;95.65;48.83;;;8.20;99.90;;;;;;5069198;28;20127;-70
2023/04/17 06:04:43;;;;;;;83.18;47.83;;;8.20;99.90;;;;;;5070962;28;20047;-70
2023/04/17 06:07:10;;;;;;;77.47;46.17;;;8.20;99.90;;;;;;5087332;28;20051;-70
2023/04/17 06:09:37;;;;;;;91.75;50.20;;;8.30;99.90;;;;;;5105094;28;20052;-71
2023/04/17 06:12:06;;;;;;;77.82;44.38;;;8.20;99.90;;;;;;5090229;28;20044;-70
2023/04/17 06:14:31;;;;;;;82.72;47.63;;;8.30;99.90;;;;;;5091758;28;20058;-71
2023/04/17 06:16:57;;;;;;;88.75;48.03;;;8.30;99.90;;;;;;5071191;28;20044;-70
2023/04/17 06:19:23;;;;;;;82.50;45.53;;;8.30;99.90;;;;;;5065894;28;20084;-70
2023/04/17 06:21:49;;;;;;;78.97;47.08;;;8.30;99.90;;;;;;5106573;28;20054;-71
2023/04/17 06:24:15;;;;;;;88.70;49.60;;;8.40;99.90;;;;;;5089559;28;20044;-70
2023/04/17 06:26:41;;;;;;;83.50;49.28;;;8.40;99.90;;;;;;5074108;28;20043;-70
2023/04/17 06:29:07;;;;;;;85.15;47.58;;;8.40;99.90;;;;;;5087029;28;20043;-70
2023/04/17 06:31:33;;;;;;;93.60;51.20;;;8.40;99.90;;;;;;5084643;28;20439;-70
2023/04/17 06:33:59;;;;;;;88.05;49.97;;;8.40;99.90;;;;;;5090116;28;20097;-70
2023/04/17 06:36:26;;;;;;;90.78;48.40;;;8.40;99.90;;;;;;5063238;28;20051;-70
2023/04/17 06:38:51;;;;;;;95.13;50.72;;;8.50;99.90;;;;;;5073181;28;20390;-70
2023/04/17 06:41:17;;;;;;;88.13;49.25;;;8.40;99.90;;;;;;5081280;28;20047;-70
2023/04/17 06:43:43;;;;;;;87.90;49.65;;;8.50;99.90;;;;;;5078824;28;20114;-70
2023/04/17 06:46:09;;;;;;;92.50;51.33;;;8.60;99.90;;;;;;5087556;28;20052;-70
2023/04/17 06:48:35;;;;;;;87.95;50.28;;;8.60;99.90;;;;;;5088235;28;20475;-70
2023/04/17 06:51:00;;;;;;;85.22;49.33;;;8.60;99.90;;;;;;5084630;28;20052;-70
2023/04/17 06:53:26;;;;;;;89.95;51.58;;;8.70;99.90;;;;;;5090700;28;20080;-70
2023/04/17 06:55:53;;;;;;;96.20;55.08;;;8.70;99.90;;;;;;5072444;28;20048;-70
2023/04/17 06:58:18;;;;;;;101.78;53.35;;;8.80;99.90;;;;;;5102608;28;20100;-70
2023/04/17 07:00:44;;;;;;;100.15;51.88;;;8.80;99.90;;;;;;5080591;28;20044;-70
2023/04/17 07:03:11;;;;;;;95.38;54.90;;;8.80;99.90;;;;;;5066524;28;20394;-70
2023/04/17 07:05:37;;;;;;;100.40;55.35;;;8.90;99.90;;;;;;5083203;28;20132;-70
2023/04/17 07:08:02;;;;;;;92.07;56.33;;;8.90;99.90;;;;;;5090654;28;20127;-70
2023/04/17 07:10:28;;;;;;;94.93;54.75;;;9.00;99.90;;;;;;5085347;28;20040;-70
2023/04/17 07:12:54;;;;;;;94.90;54.78;;;9.00;99.90;;;;;;5085089;28;20046;-70
2023/04/17 07:15:19;;;;;;;102.68;54.92;;;9.10;99.90;;;;;;5086190;28;20045;-70
2023/04/17 07:17:45;;;;;;;87.45;55.20;;;9.10;99.90;;;;;;5085971;28;20493;-70
2023/04/17 07:20:11;;;;;;;92.88;56.08;;;9.30;99.90;;;;;;5084890;28;20048;-70
2023/04/17 07:22:37;;;;;;;96.97;56.50;;;9.40;99.90;;;;;;5079120;28;20051;-69
2023/04/17 07:25:03;;;;;;;91.82;56.35;;;9.50;99.90;;;;;;5086315;28;20060;-70
2023/04/17 07:27:29;;;;;;;89.30;53.95;;;9.60;99.90;;;;;;5086287;28;20053;-70
2023/04/17 07:29:55;;;;;;;92.85;56.78;;;9.70;99.90;;;;;;5084689;28;20732;-69
2023/04/17 07:32:23;;;;;;;97.13;57.42;;;9.80;99.90;;;;;;5094364;28;20052;-71
2023/04/17 07:34:49;;;;;;;97.50;59.15;;;9.90;99.90;;;;;;5091594;28;20408;-70
2023/04/17 07:37:15;;;;;;;96.22;56.97;;;10.00;99.90;;;;;;5099049;28;20044;-71
2023/04/17 07:39:41;;;;;;;113.47;61.35;;;10.10;99.90;;;;;;5070865;28;20044;-70
2023/04/17 07:42:07;;;;;;;91.15;55.67;;;10.20;99.90;;;;;;5088843;28;20068;-70
2023/04/17 07:44:39;;;;;;;81.57;51.40;;;10.30;99.90;;;;;;5071521;28;20847;-70
2023/04/17 07:47:05;;;;;;;83.97;53.67;;;10.40;99.90;;;;;;5067482;28;20052;-71
2023/04/17 07:49:31;;;;;;;79.38;52.70;;;10.40;99.90;;;;;;5082058;28;20040;-70
2023/04/17 07:51:56;;;;;;;69.40;49.08;;;10.40;99.90;;;;;;5083930;28;20048;-70
2023/04/17 07:54:22;;;;;;;77.70;51.67;;;10.50;99.90;;;;;;5069895;28;20451;-70
2023/04/17 07:56:48;;;;;;;72.10;48.03;;;10.60;99.90;;;;;;5088151;28;20570;-70
2023/04/17 07:59:17;;;;;;;80.47;50.67;;;10.70;99.90;;;;;;5084016;28;20048;-70
2023/04/17 08:01:43;;;;;;;66.78;47.38;;;10.70;99.90;;;;;;5087102;28;20566;-70
2023/04/17 08:04:08;;;;;;;73.90;50.20;;;10.80;99.90;;;;;;5087962;28;20070;-70
2023/04/17 08:06:34;;;;;;;68.45;48.80;;;10.70;99.90;;;;;;5088185;28;20424;-70
2023/04/17 08:09:01;;;;;;;76.78;47.72;;;10.70;99.90;;;;;;5086083;28;20048;-70
2023/04/17 08:11:27;;;;;;;77.18;50.75;;;10.80;99.90;;;;;;5088873;28;20040;-70
2023/04/17 08:13:54;;;;;;;75.82;50.20;;;10.90;99.90;;;;;;5088614;28;20048;-69
2023/04/17 08:16:20;;;;;;;73.35;50.03;;;11.00;99.90;;;;;;5069764;28;20044;-71
2023/04/17 08:18:46;;;;;;;76.97;49.40;;;11.00;99.90;;;;;;5053488;28;20158;-70
2023/04/17 08:21:12;;;;;;;65.78;46.20;;;11.10;99.90;;;;;;5088222;28;20449;-69
2023/04/17 08:23:37;;;;;;;64.50;47.03;;;11.20;99.90;;;;;;5087800;28;20100;-70
2023/04/17 08:26:03;;;;;;;71.50;46.78;;;11.20;99.90;;;;;;5085949;28;20057;-70
2023/04/17 08:28:29;;;;;;;72.40;48.83;;;11.20;99.90;;;;;;5089628;28;20036;-69
2023/04/17 08:30:55;;;;;;;73.63;49.88;;;11.30;99.90;;;;;;5087994;28;20053;-70
2023/04/17 08:33:21;;;;;;;65.68;47.13;;;11.50;99.90;;;;;;5070343;28;20055;-69
2023/04/17 08:35:47;;;;;;;75.13;44.70;;;11.50;99.90;;;;;;5070055;28;20032;-70
2023/04/17 08:38:13;;;;;;;61.22;47.28;;;11.60;99.90;;;;;;5089674;28;20078;-70
2023/04/17 08:40:45;;;;;;;68.85;46.97;;;11.70;99.90;;;;;;5064250;28;20086;-70
2023/04/17 08:43:16;;;;;;;65.20;46.17;;;11.80;99.90;;;;;;5083837;28;20471;-69
2023/04/17 08:45:54;;;;;;;58.15;43.33;;;11.80;99.90;;;;;;5090383;28;20464;-69
2023/04/17 08:48:21;;;;;;;60.88;43.55;;;11.80;99.90;;;;;;5087969;28;20046;-69
2023/04/17 08:50:49;;;;;;;55.58;42.45;;;11.90;99.90;;;;;;5055489;28;20048;-69
2023/04/17 08:53:19;;;;;;;55.15;42.63;;;12.00;99.90;;;;;;5070598;28;20048;-70
2023/04/17 08:55:46;;;;;;;56.92;43.05;;;12.20;99.90;;;;;;5086645;28;20047;-69
2023/04/17 08:58:13;;;;;;;55.70;42.53;;;12.30;99.90;;;;;;5082162;28;20044;-69
2023/04/17 09:00:40;;;;;;;59.83;44.00;;;12.50;99.90;;;;;;5101452;28;20050;-70
2023/04/17 09:03:09;;;;;;;60.13;43.58;;;12.60;99.90;;;;;;5069500;28;20504;-69
2023/04/17 09:05:36;;;;;;;57.42;41.90;;;12.70;99.90;;;;;;5103678;28;20047;-69
2023/04/17 09:08:10;;;;;;;51.30;41.42;;;12.90;99.90;;;;;;5087671;28;20047;-69
2023/04/17 09:10:44;;;;;;;49.25;39.88;;;13.00;99.90;;;;;;5088047;28;20101;-69
2023/04/17 09:13:13;;;;;;;52.53;40.63;;;13.10;99.90;;;;;;5094670;28;20112;-69
2023/04/17 09:15:39;;;;;;;61.72;44.40;;;13.10;99.90;;;;;;5090170;28;20055;-69
2023/04/17 09:18:32;;;;;;;45.25;37.80;;;13.20;99.90;;;;;;5094265;28;20044;-69
2023/04/17 09:20:59;;;;;;;52.58;41.08;;;13.30;99.90;;;;;;5094555;28;20043;-69
2023/04/17 09:23:26;;;;;;;40.27;35.60;;;13.50;99.90;;;;;;5081554;28;20043;-69
2023/04/17 09:26:09;;;;;;;47.35;35.28;;;13.70;99.90;;;;;;5076755;28;20290;-69
2023/04/17 09:28:38;;;;;;;45.15;36.85;;;13.80;99.90;;;;;;5094666;28;20036;-69
2023/04/17 09:31:06;;;;;;;44.15;36.67;;;13.80;99.90;;;;;;5091969;28;20044;-71
2023/04/17 09:33:32;;;;;;;42.88;35.15;;;13.80;99.90;;;;;;5073408;28;20040;-72
2023/04/17 09:36:20;;;;;;;48.13;34.47;;;13.90;99.90;;;;;;5064019;28;20378;-72
2023/04/17 09:38:46;;;;;;;54.92;35.40;;;14.00;99.90;;;;;;5094386;28;20052;-72
2023/04/17 09:41:32;;;;;;;46.88;35.47;;;14.20;99.90;;;;;;5072541;28;20044;-72
2023/04/17 09:44:04;;;;;;;39.70;32.80;;;14.30;99.90;;;;;;5094273;28;20505;-71
2023/04/17 09:46:36;;;;;;;42.72;33.70;;;14.40;99.90;;;;;;5093668;28;20409;-72
2023/04/17 09:49:17;;;;;;;44.10;35.38;;;14.30;99.90;;;;;;5071074;28;20643;-72
2023/04/17 09:51:44;;;;;;;41.33;32.20;;;14.20;99.90;;;;;;5084031;28;20044;-72
2023/04/17 09:54:13;;;;;;;43.92;34.88;;;14.30;99.90;;;;;;5073710;28;20463;-71
2023/04/17 09:56:40;;;;;;;45.88;35.17;;;14.20;99.90;;;;;;5093713;28;20036;-71
2023/04/17 09:59:06;;;;;;;48.65;35.70;;;14.40;99.90;;;;;;5074952;28;20054;-71
2023/04/17 10:01:35;;;;;;;39.80;33.40;;;14.50;99.90;;;;;;5090865;28;20043;-71
2023/04/17 10:04:02;;;;;;;46.83;34.75;;;14.60;99.90;;;;;;5093103;28;20363;-71
2023/04/17 10:06:31;;;;;;;43.35;34.75;;;14.50;99.90;;;;;;5090857;28;20500;-71
2023/04/17 10:08:57;;;;;;;41.53;33.13;;;14.50;99.90;;;;;;5073260;28;20416;-71
2023/04/17 10:11:44;;;;;;;42.75;34.38;;;14.60;99.90;;;;;;5094091;28;20035;-71
2023/04/17 10:14:22;;;;;;;37.45;33.05;;;14.80;99.90;;;;;;5075710;28;20054;-70
2023/04/17 10:16:50;;;;;;;41.95;33.13;;;14.70;99.90;;;;;;5079652;28;20051;-70
2023/04/17 10:19:28;;;;;;;39.38;33.83;;;14.70;99.90;;;;;;5072386;28;20807;-70
2023/04/17 10:22:19;;;;;;;;;;;14.90;99.90;;;;;;5079030;28;20070;-70
2023/04/17 10:24:51;;;;;;;46.10;34.63;;;14.80;99.90;;;;;;5083854;28;19920;-70
2023/04/17 10:27:26;;;;;;;36.83;32.50;;;14.70;99.90;;;;;;5090623;28;20040;-70
2023/04/17 10:29:55;;;;;;;39.45;32.67;;;14.70;99.90;;;;;;5072423;28;20104;-70
2023/04/17 10:32:24;;;;;;;32.58;29.05;;;14.80;99.90;;;;;;5052370;28;20097;-70
2023/04/17 10:34:50;;;;;;;40.90;33.35;;;14.70;99.90;;;;;;5100262;28;20918;-70
2023/04/17 10:37:16;;;;;;;42.17;31.83;;;14.70;99.90;;;;;;5084270;28;20047;-70
2023/04/17 10:40:01;;;;;;;43.70;31.15;;;14.80;99.90;;;;;;5088493;28;20083;-70
2023/04/17 10:42:28;;;;;;;50.70;31.77;;;14.90;99.90;;;;;;5078920;28;20048;-70
2023/04/17 10:45:04;;;;;;;31.73;27.25;;;14.80;99.90;;;;;;5105885;28;20071;-70
2023/04/17 10:47:32;;;;;;;36.65;28.83;;;14.70;99.90;;;;;;5089646;28;20048;-69
2023/04/17 10:49:59;;;;;;;44.38;29.95;;;14.40;99.90;;;;;;5105902;28;20492;-69
2023/04/17 10:52:31;;;;;;;36.45;29.73;;;14.60;99.90;;;;;;5089951;28;20039;-70
2023/04/17 10:55:05;;;;;;;37.13;28.33;;;14.70;99.90;;;;;;5090278;28;20044;-70
2023/04/17 10:58:10;;;;;;;30.90;27.50;;;15.00;99.90;;;;;;5086055;28;20155;-70
2023/04/17 11:00:48;;;;;;;31.50;27.95;;;15.20;99.90;;;;;;5089836;28;20120;-70
2023/04/17 11:03:15;;;;;;;31.92;26.95;;;15.40;99.90;;;;;;5088201;28;20497;-70
2023/04/17 11:05:45;;;;;;;32.53;27.40;;;15.60;99.90;;;;;;5083993;28;20067;-69
2023/04/17 11:08:11;;;;;;;34.20;27.98;;;15.70;99.90;;;;;;5081713;28;20060;-69
2023/04/17 11:10:37;;;;;;;31.10;26.25;;;15.70;99.90;;;;;;5086393;28;20497;-70
2023/04/17 11:13:03;;;;;;;32.53;26.98;;;15.50;99.90;;;;;;5089711;28;20253;-70
2023/04/17 11:15:30;;;;;;;36.90;31.08;;;15.40;99.90;;;;;;5088707;28;20044;-69
2023/04/17 11:17:57;;;;;;;34.33;26.95;;;15.50;99.90;;;;;;5087657;28;20044;-69
2023/04/17 11:20:25;;;;;;;37.15;27.90;;;15.80;99.90;;;;;;5088296;28;20052;-69
2023/04/17 11:22:52;;;;;;;29.35;26.02;;;16.00;99.90;;;;;;5087911;28;20036;-69
2023/04/17 11:25:22;;;;;;;43.03;26.83;;;15.90;99.90;;;;;;5086955;28;20032;-69
2023/04/17 11:27:53;;;;;;;34.80;28.15;;;15.80;99.90;;;;;;5093041;28;20032;-69
2023/04/17 11:30:24;;;;;;;33.10;27.15;;;15.70;99.90;;;;;;5088984;28;20051;-69
2023/04/17 11:32:50;;;;;;;44.58;28.77;;;15.70;99.90;;;;;;5089214;28;20147;-69
2023/04/17 11:35:16;;;;;;;33.78;28.20;;;15.80;99.90;;;;;;5069832;28;20044;-69
2023/04/17 11:38:07;;;;;;;35.55;28.70;;;15.90;99.90;;;;;;5087507;28;20038;-69
2023/04/17 11:40:33;;;;;;;36.20;31.02;;;15.80;99.90;;;;;;5085986;28;20040;-69
2023/04/17 11:43:06;;;;;;;39.92;31.08;;;15.60;99.90;;;;;;5088943;28;20048;-69
2023/04/17 11:45:34;;;;;;;36.60;31.23;;;15.60;99.90;;;;;;5104303;28;20043;-69
2023/04/17 11:48:01;;;;;;;36.38;31.13;;;15.50;99.90;;;;;;5089054;28;20214;-69
2023/04/17 11:50:30;;;;;;;36.00;30.25;;;15.70;99.90;;;;;;5088934;28;20173;-69
2023/04/17 11:53:01;;;;;;;34.92;30.10;;;15.70;99.90;;;;;;5087896;28;20393;-68
2023/04/17 11:55:32;;;;;;;33.92;29.63;;;15.60;99.90;;;;;;5081550;28;20036;-69
2023/04/17 11:58:00;;;;;;;33.75;29.60;;;15.70;99.90;;;;;;5066625;28;20093;-69
2023/04/17 12:00:28;;;;;;;31.95;28.52;;;15.90;99.90;;;;;;5070219;28;20044;-69
2023/04/17 12:02:58;;;;;;;36.65;27.30;;;16.00;99.90;;;;;;5086274;28;20437;-69
2023/04/17 12:05:26;;;;;;;37.30;30.13;;;16.10;99.90;;;;;;5089263;28;20040;-69
2023/04/17 12:08:03;;;;;;;41.72;31.02;;;15.90;99.90;;;;;;5088334;28;20047;-69
2023/04/17 12:10:43;;;;;;;39.25;30.65;;;15.90;99.90;;;;;;5081827;28;20047;-69
2023/04/17 12:13:10;;;;;;;44.65;31.73;;;15.90;99.90;;;;;;5088187;28;20111;-69
2023/04/17 12:15:37;;;;;;;32.08;27.92;;;16.20;99.90;;;;;;5084199;28;20040;-69
2023/04/17 12:18:04;;;;;;;30.90;27.52;;;16.40;99.90;;;;;;5088125;28;20040;-69
2023/04/17 12:20:33;;;;;;;38.28;27.20;;;16.70;99.90;;;;;;5084794;28;20123;-71
2023/04/17 12:23:00;;;;;;;29.45;25.00;;;17.00;99.90;;;;;;5087751;28;20062;-69
2023/04/17 12:25:26;;;;;;;48.22;29.45;;;17.00;99.90;;;;;;5086287;28;20039;-70
2023/04/17 12:27:55;;;;;;;33.95;29.30;;;16.70;99.90;;;;;;5088455;28;20047;-70
2023/04/17 12:30:23;;;;;;;41.25;29.60;;;16.80;99.90;;;;;;5083733;28;20807;-69
2023/04/17 12:32:50;;;;;;;50.70;31.10;;;16.60;99.90;;;;;;5104286;28;20054;-71